岡山空港の過去48時間の天気

岡山空港 (Okayama)

現在時刻: 1/23 13:17 JST (1/23 04:17 UTC) 以下の時間は現地時間です。

過去48時間のMETAR気象情報
時間 風向 風速(m/s) 視程 気温(℃) 湿度(%) 気圧(hPa) 天気現象
23 13:00 西北西 5 6,000m 2 93 1011 弱いしゅう雪
23 12:48 西北西 7 4,500m 2 87 1011 弱いしゅう雪
23 12:37 西 8 7,000m 3 87 1011 弱いしゅう雨 弱いしゅう雪
23 12:00 西 6 8,000m 4 87 1011 弱いしゅう雨 弱いしゅう雪
23 11:00 西 7 7,000m 5 75 1011
23 10:00 西 5 9,000m 4 81 1011 周辺でしゅう雨
23 09:00 西北西 5 8,000m 3 93 1011 弱いしゅう雨
23 08:00 西 3 6,000m 3 93 1010
23 07:00 西 4 7,000m 2 93 1010
23 06:15 西 3 7,000m 2 93 1009
22 21:13 西南西 3 200m -1 100 1011
22 21:00 西 2 500m -1 100 1011
22 20:20 西 3 400m 0 93 1011
22 20:12 西 3 1,500m -1 100 1011 もや 部分霧
22 20:05 西 3 3,500m -1 100 1011 もや 部分霧
22 20:00 西 3 4,500m -1 100 1011 部分霧 もや
22 19:00 西 3 8,000m 0 100 1011
22 18:20 西 3 5,000m -1 100 1011 部分霧 もや
22 18:00 西南西 2 600m 0 100 1011
22 17:48 西 2 500m 0 100 1011
22 17:00 西 1 10km以上 1 100 1010 部分霧
22 16:00 北西 2 6,000m 1 100 1011 弱いしゅう雨 弱いしゅう雪 散在した霧
22 15:28 北北西 2 5,000m 1 100 1010 弱い雨 弱い雪 もや
22 15:00 北北西 2 4,000m 1 100 1011 弱い雪 もや
22 14:36 北北西 2 1,200m 1 93 1010 弱い雪 もや
22 14:00 北北西 2 900m 1 93 1010
22 13:31 北北西 2 1,500m 1 93 1011 弱い雪 もや
22 13:09 北北西 2 700m 0 100 1011
22 13:00 静穏 0 700m 0 100 1011
22 12:47 東北東 1 600m 0 100 1011
22 12:30 東北東 1 700m 0 100 1012
22 12:23 北東 1 700m 0 100 1012
22 12:08 北東 2 800m 1 93 1012
22 12:00 北東 2 1,500m 1 93 1012 弱い雪 もや
22 11:00 不定 1 10km以上 3 81 1014 弱い雨 弱い雪
22 10:00 北北西 2 10km以上 4 70 1015
22 09:00 不定 1 10km以上 4 70 1015
22 08:00 不定 1 10km以上 3 75 1016
22 07:00 2 10km以上 2 81 1015
22 06:15 東北東 4 10km以上 2 81 1015
RJOB 230400Z 29010KT 260V330 6000 R07/P2000N -SHSN FEW007 SCT010 BKN020 02/01 Q1011
RJOB 230348Z 29013G25KT 260V330 4500 R07/P2000N -SHSN FEW008 SCT010 BKN020 02/00 Q1011 RMK 1ST008 4CU010 6CU020 A2988 1000NE-E
RJOB 230337Z 28015G25KT 250V330 7000 -SHRASN FEW015 SCT025 BKN035 03/01 Q1011 RMK 1CU015 4CU025 6CU035 A2987
RJOB 230300Z 27011KT 240V300 8000 -SHRASN FEW015 SCT025 BKN035 04/02 Q1011
RJOB 230200Z 26013KT 240V310 7000 FEW015 SCT045 05/01 Q1011
RJOB 230100Z 27009KT 9000 VCSH FEW010 SCT035 04/01 Q1011
RJOB 230000Z 29009KT 8000 -SHRA FEW015 SCT025 BKN035 03/02 Q1011
RJOB 222300Z 27006KT 6000 FEW015 03/02 Q1010
RJOB 222200Z 27007KT 7000 FEW006 SCT015 BKN050 02/01 Q1010
RJOB 222115Z 26005KT 7000 FEW006 SCT015 BKN050 02/01 Q1009 RMK 1ST006 4CU015 6SC050 A2982
RJOB 221213Z 24006KT 0200 R07/0250N FG FEW000 BKN001 M01/M01 Q1011 RMK 1ST000 5ST001 A2987
RJOB 221200Z 26004KT 0500 R07/0250N FG FEW000 BKN001 M01/M01 Q1011
RJOB 221120Z 26005KT 0400 R07/0225V0325N FG FEW000 BKN001 M00/M01 Q1011 RMK 1ST000 5ST001 A2987
RJOB 221112Z 26005KT 1500 R07/0275V0500N BR PRFG FEW000 SCT001 M01/M01 Q1011 RMK 1ST000 4ST001 A2987 FG S-SW
RJOB 221105Z 26005KT 3500 R07/0375V0600N BR PRFG FEW000 M01/M01 Q1011 RMK 1ST000 A2987 FG S-SW
RJOB 221100Z 26006KT 4500 R07/0400VP2000D BR PRFG FEW000 M01/M01 Q1011
RJOB 221000Z 27005KT 8000 FEW002 00/00 Q1011
RJOB 220920Z 27005KT 5000 R07/0800VP2000U BR PRFG FEW000 M01/M01 Q1011 RMK 1ST000 A2987 FG SE
RJOB 220900Z 25003KT 0600 R07/0275N FG FEW000 SCT001 BKN010 00/00 Q1011
RJOB 220848Z 27004KT 0500 R07/0275V0800D FG FEW000 SCT002 BKN010 00/M00 Q1011 RMK 1ST000 4ST002 6ST010 A2986 8000NE
RJOB 220800Z 26002KT 9999 PRFG FEW000 BKN090 01/01 Q1010
RJOB 220700Z 31003KT 280V360 6000 -SHRASN BCFG FEW000 SCT008 BKN020 01/01 Q1011
RJOB 220628Z 34003KT 5000 -RASN BR FEW001 SCT008 BKN015 01/01 Q1010 RMK 1ST001 3ST008 6CU015 A2985
RJOB 220600Z 33003KT 300V020 4000 -SN BR FEW001 SCT006 BKN010 01/01 Q1011
RJOB 220536Z 33004KT 290V360 1200 R07/1400VP2000U -SN BR FEW001 SCT006 BKN010 01/00 Q1010 RMK 1ST001 3ST006 5ST010 A2985
RJOB 220500Z 34003KT 280V010 0900 R07/1900D SN FEW002 SCT004 BKN008 01/00 Q1010
RJOB 220431Z 33003KT 310V010 1500 R07/P2000N -SN BR FEW002 SCT003 BKN008 01/00 Q1011 RMK 1ST002 4ST003 6ST008 A2986
RJOB 220409Z 33003KT 0700 R07/1500VP2000N SN FEW002 SCT003 BKN005 00/00 Q1011 RMK 1ST002 4ST003 6ST005 A2986
RJOB 220400Z 00000KT 0700 R07/1100V1700U SN FEW002 SCT003 BKN005 00/00 Q1011
RJOB 220347Z 06001KT 0600 R07/0750V1300D SN FEW002 SCT003 BKN005 00/00 Q1011 RMK 1ST002 4ST003 6ST005 A2987
RJOB 220330Z 06002KT 0700 R07/1100V1500D SN FEW002 SCT004 BKN008 00/00 Q1012 RMK 1ST002 4ST004 6ST008 A2988
RJOB 220323Z 04002KT 0700 R07/1200VP2000D SN FEW002 SCT004 BKN008 00/M00 Q1012 RMK 1ST002 4ST004 6ST008 A2989
RJOB 220308Z 04003KT 0800 R07/1400VP2000D SN FEW003 SCT005 BKN010 01/00 Q1012 RMK 1ST003 4ST005 6ST010 A2990
RJOB 220300Z 04003KT 1500 R07/P2000N -SN BR FEW005 SCT008 BKN010 01/00 Q1012
RJOB 220200Z VRB02KT 9999 -RASN FEW020 SCT025 BKN035 03/00 Q1014
RJOB 220100Z 34004KT 9999 FEW020 SCT040 BKN050 04/M01 Q1015
RJOB 220000Z VRB02KT 9999 FEW025 SCT060 BKN080 04/M01 Q1015
RJOB 212300Z VRB02KT 9999 FEW025 SCT060 BKN080 03/M01 Q1016
RJOB 212200Z 08004KT 020V160 9999 FEW025 SCT060 BKN100 02/M01 Q1015
RJOB 212115Z 06007KT 9999 FEW025 BKN100 02/M01 Q1015 RMK 1CU025 7AC100 A3000